sensor_id;sensor_type;location;lat;lon;timestamp;pressure;altitude;pressure_sealevel;temperature;humidity
48810;BME280;40070;47.322;18.784;2024-03-02T00:01:19;996.52;;;10.81;78.54
48810;BME280;40070;47.322;18.784;2024-03-02T00:03:20;996.50;;;10.84;78.61
48810;BME280;40070;47.322;18.784;2024-03-02T00:05:21;996.42;;;10.75;78.84
48810;BME280;40070;47.322;18.784;2024-03-02T00:07:22;996.38;;;10.83;78.62
48810;BME280;40070;47.322;18.784;2024-03-02T00:09:23;996.31;;;10.85;78.41
48810;BME280;40070;47.322;18.784;2024-03-02T00:11:24;996.32;;;10.75;78.71
48810;BME280;40070;47.322;18.784;2024-03-02T00:13:25;996.29;;;10.82;78.35
48810;BME280;40070;47.322;18.784;2024-03-02T00:17:40;996.22;;;10.86;78.22
48810;BME280;40070;47.322;18.784;2024-03-02T00:19:40;996.29;;;10.65;78.76
48810;BME280;40070;47.322;18.784;2024-03-02T00:21:41;996.27;;;10.70;78.73
48810;BME280;40070;47.322;18.784;2024-03-02T00:23:43;996.22;;;10.62;78.59
48810;BME280;40070;47.322;18.784;2024-03-02T00:25:48;996.20;;;10.46;79.47
48810;BME280;40070;47.322;18.784;2024-03-02T00:27:49;996.17;;;10.51;79.33
48810;BME280;40070;47.322;18.784;2024-03-02T00:29:50;996.19;;;10.63;78.68
48810;BME280;40070;47.322;18.784;2024-03-02T00:31:51;996.20;;;10.63;78.62
48810;BME280;40070;47.322;18.784;2024-03-02T00:33:52;996.19;;;10.71;77.92
48810;BME280;40070;47.322;18.784;2024-03-02T00:35:53;996.23;;;10.62;78.32
48810;BME280;40070;47.322;18.784;2024-03-02T00:37:55;996.27;;;10.60;78.27
48810;BME280;40070;47.322;18.784;2024-03-02T00:39:57;996.29;;;10.62;78.03
48810;BME280;40070;47.322;18.784;2024-03-02T00:41:58;996.32;;;10.67;77.77
48810;BME280;40070;47.322;18.784;2024-03-02T00:44:06;996.28;;;10.52;78.10
48810;BME280;40070;47.322;18.784;2024-03-02T00:46:08;996.30;;;10.50;78.42
48810;BME280;40070;47.322;18.784;2024-03-02T00:48:09;996.24;;;10.35;79.05
48810;BME280;40070;47.322;18.784;2024-03-02T00:50:12;996.31;;;10.38;79.12
48810;BME280;40070;47.322;18.784;2024-03-02T00:52:14;996.29;;;10.39;78.97
48810;BME280;40070;47.322;18.784;2024-03-02T00:54:15;996.23;;;10.28;79.37
48810;BME280;40070;47.322;18.784;2024-03-02T00:56:17;996.19;;;10.37;79.02
48810;BME280;40070;47.322;18.784;2024-03-02T00:58:18;996.17;;;10.47;78.78
48810;BME280;40070;47.322;18.784;2024-03-02T01:00:19;996.15;;;10.55;78.38
48810;BME280;40070;47.322;18.784;2024-03-02T01:02:20;996.14;;;10.66;77.72
48810;BME280;40070;47.322;18.784;2024-03-02T01:04:21;996.20;;;10.64;77.73
48810;BME280;40070;47.322;18.784;2024-03-02T01:06:22;996.19;;;10.61;77.98
48810;BME280;40070;47.322;18.784;2024-03-02T01:08:23;996.18;;;10.69;77.28
48810;BME280;40070;47.322;18.784;2024-03-02T01:10:24;996.14;;;10.79;76.78
48810;BME280;40070;47.322;18.784;2024-03-02T01:12:25;996.15;;;10.65;77.31
48810;BME280;40070;47.322;18.784;2024-03-02T01:14:26;996.14;;;10.75;76.90
48810;BME280;40070;47.322;18.784;2024-03-02T01:16:27;996.15;;;10.63;77.44
48810;BME280;40070;47.322;18.784;2024-03-02T01:18:28;996.16;;;10.61;77.32
48810;BME280;40070;47.322;18.784;2024-03-02T01:20:29;996.14;;;10.67;77.25
48810;BME280;40070;47.322;18.784;2024-03-02T01:22:30;996.19;;;10.53;77.70
48810;BME280;40070;47.322;18.784;2024-03-02T01:24:31;996.17;;;10.55;77.76
48810;BME280;40070;47.322;18.784;2024-03-02T01:26:32;996.19;;;10.49;77.91
48810;BME280;40070;47.322;18.784;2024-03-02T01:28:33;996.17;;;10.49;77.71
48810;BME280;40070;47.322;18.784;2024-03-02T01:30:34;996.14;;;10.45;77.88
48810;BME280;40070;47.322;18.784;2024-03-02T01:32:35;996.11;;;10.48;77.83
48810;BME280;40070;47.322;18.784;2024-03-02T01:34:38;996.12;;;10.67;77.01
48810;BME280;40070;47.322;18.784;2024-03-02T01:36:39;996.06;;;10.77;76.27
48810;BME280;40070;47.322;18.784;2024-03-02T01:38:40;996.06;;;10.75;76.17
48810;BME280;40070;47.322;18.784;2024-03-02T01:40:41;996.00;;;10.80;75.64
48810;BME280;40070;47.322;18.784;2024-03-02T01:42:42;996.02;;;10.86;75.48
48810;BME280;40070;47.322;18.784;2024-03-02T01:44:43;995.97;;;10.91;75.10
48810;BME280;40070;47.322;18.784;2024-03-02T01:46:44;995.96;;;10.99;74.68
48810;BME280;40070;47.322;18.784;2024-03-02T01:48:45;995.97;;;10.89;74.47
48810;BME280;40070;47.322;18.784;2024-03-02T01:50:46;995.96;;;10.87;74.49
48810;BME280;40070;47.322;18.784;2024-03-02T01:52:47;996.04;;;10.87;74.50
48810;BME280;40070;47.322;18.784;2024-03-02T01:54:48;996.05;;;10.95;74.16
48810;BME280;40070;47.322;18.784;2024-03-02T01:56:49;996.06;;;11.15;73.34
48810;BME280;40070;47.322;18.784;2024-03-02T01:58:50;996.07;;;11.06;73.37
48810;BME280;40070;47.322;18.784;2024-03-02T02:00:51;996.09;;;11.04;73.65
48810;BME280;40070;47.322;18.784;2024-03-02T02:02:52;996.11;;;11.03;73.47
48810;BME280;40070;47.322;18.784;2024-03-02T02:04:53;996.14;;;11.08;73.51
48810;BME280;40070;47.322;18.784;2024-03-02T02:06:54;996.16;;;11.05;73.49
48810;BME280;40070;47.322;18.784;2024-03-02T02:08:55;996.17;;;11.11;73.46
48810;BME280;40070;47.322;18.784;2024-03-02T02:10:56;996.16;;;11.24;72.88
48810;BME280;40070;47.322;18.784;2024-03-02T02:12:57;996.18;;;11.16;73.05
48810;BME280;40070;47.322;18.784;2024-03-02T02:14:58;996.21;;;11.13;73.30
48810;BME280;40070;47.322;18.784;2024-03-02T02:16:59;996.22;;;11.09;73.27
48810;BME280;40070;47.322;18.784;2024-03-02T02:19:00;996.28;;;11.09;73.17
48810;BME280;40070;47.322;18.784;2024-03-02T02:21:01;996.31;;;11.07;73.44
48810;BME280;40070;47.322;18.784;2024-03-02T02:23:03;996.34;;;10.92;73.80
48810;BME280;40070;47.322;18.784;2024-03-02T02:25:04;996.36;;;11.02;73.52
48810;BME280;40070;47.322;18.784;2024-03-02T02:27:05;996.36;;;11.21;72.88
48810;BME280;40070;47.322;18.784;2024-03-02T02:29:06;996.34;;;11.25;72.71
48810;BME280;40070;47.322;18.784;2024-03-02T02:31:07;996.32;;;11.27;72.66
48810;BME280;40070;47.322;18.784;2024-03-02T02:33:08;996.38;;;11.26;72.75
48810;BME280;40070;47.322;18.784;2024-03-02T02:35:10;996.34;;;11.14;73.09
48810;BME280;40070;47.322;18.784;2024-03-02T02:37:11;996.41;;;11.11;73.36
48810;BME280;40070;47.322;18.784;2024-03-02T02:39:13;996.38;;;11.08;73.41
48810;BME280;40070;47.322;18.784;2024-03-02T02:41:16;996.33;;;11.04;73.49
48810;BME280;40070;47.322;18.784;2024-03-02T02:43:17;996.26;;;11.16;73.24
48810;BME280;40070;47.322;18.784;2024-03-02T02:45:18;996.26;;;11.30;72.90
48810;BME280;40070;47.322;18.784;2024-03-02T02:47:19;996.27;;;11.20;72.82
48810;BME280;40070;47.322;18.784;2024-03-02T02:49:20;996.25;;;11.16;72.90
48810;BME280;40070;47.322;18.784;2024-03-02T02:51:21;996.25;;;11.18;72.71
48810;BME280;40070;47.322;18.784;2024-03-02T02:53:22;996.25;;;11.18;73.02
48810;BME280;40070;47.322;18.784;2024-03-02T02:55:23;996.19;;;11.33;72.26
48810;BME280;40070;47.322;18.784;2024-03-02T02:57:24;996.20;;;11.30;72.18
48810;BME280;40070;47.322;18.784;2024-03-02T02:59:25;996.19;;;11.20;72.44
48810;BME280;40070;47.322;18.784;2024-03-02T03:01:26;996.17;;;11.29;72.20
48810;BME280;40070;47.322;18.784;2024-03-02T03:03:27;996.14;;;11.28;72.16
48810;BME280;40070;47.322;18.784;2024-03-02T03:05:28;996.15;;;11.23;72.17
48810;BME280;40070;47.322;18.784;2024-03-02T03:07:29;996.16;;;11.18;72.43
48810;BME280;40070;47.322;18.784;2024-03-02T03:09:30;996.20;;;11.18;72.68
48810;BME280;40070;47.322;18.784;2024-03-02T03:11:31;996.22;;;11.21;72.41
48810;BME280;40070;47.322;18.784;2024-03-02T03:13:34;996.27;;;11.09;72.33
48810;BME280;40070;47.322;18.784;2024-03-02T03:15:35;996.29;;;11.05;72.62
48810;BME280;40070;47.322;18.784;2024-03-02T03:17:36;996.30;;;11.09;72.62
48810;BME280;40070;47.322;18.784;2024-03-02T03:19:38;996.33;;;11.18;72.27
48810;BME280;40070;47.322;18.784;2024-03-02T03:21:39;996.35;;;11.09;72.66
48810;BME280;40070;47.322;18.784;2024-03-02T03:23:40;996.28;;;11.17;72.29
48810;BME280;40070;47.322;18.784;2024-03-02T03:25:41;996.27;;;11.14;72.24
48810;BME280;40070;47.322;18.784;2024-03-02T03:27:42;996.24;;;11.15;72.55
48810;BME280;40070;47.322;18.784;2024-03-02T03:29:43;996.23;;;11.19;72.33
48810;BME280;40070;47.322;18.784;2024-03-02T03:31:44;996.23;;;11.27;72.18
48810;BME280;40070;47.322;18.784;2024-03-02T03:33:45;996.25;;;11.22;72.39
48810;BME280;40070;47.322;18.784;2024-03-02T03:35:46;996.21;;;11.19;72.23
48810;BME280;40070;47.322;18.784;2024-03-02T03:37:47;996.21;;;11.28;71.90
48810;BME280;40070;47.322;18.784;2024-03-02T03:39:48;996.20;;;11.45;71.22
48810;BME280;40070;47.322;18.784;2024-03-02T03:41:48;996.22;;;11.36;71.38
48810;BME280;40070;47.322;18.784;2024-03-02T03:43:49;996.25;;;11.26;71.68
48810;BME280;40070;47.322;18.784;2024-03-02T03:45:50;996.29;;;11.20;72.18
48810;BME280;40070;47.322;18.784;2024-03-02T03:47:51;996.30;;;11.15;72.49
48810;BME280;40070;47.322;18.784;2024-03-02T03:49:52;996.33;;;11.10;72.86
48810;BME280;40070;47.322;18.784;2024-03-02T03:51:53;996.36;;;10.95;73.63
48810;BME280;40070;47.322;18.784;2024-03-02T03:53:54;996.38;;;10.70;75.09
48810;BME280;40070;47.322;18.784;2024-03-02T03:55:55;996.39;;;10.73;75.80
48810;BME280;40070;47.322;18.784;2024-03-02T03:57:56;996.38;;;10.71;76.16
48810;BME280;40070;47.322;18.784;2024-03-02T03:59:57;996.33;;;10.88;75.70
48810;BME280;40070;47.322;18.784;2024-03-02T04:01:58;996.41;;;10.84;76.14
48810;BME280;40070;47.322;18.784;2024-03-02T04:03:59;996.38;;;10.88;75.61
48810;BME280;40070;47.322;18.784;2024-03-02T04:06:00;996.41;;;10.93;76.05
48810;BME280;40070;47.322;18.784;2024-03-02T04:08:01;996.44;;;10.86;76.12
48810;BME280;40070;47.322;18.784;2024-03-02T04:10:02;996.42;;;10.66;76.32
48810;BME280;40070;47.322;18.784;2024-03-02T04:12:03;996.41;;;10.58;77.40
48810;BME280;40070;47.322;18.784;2024-03-02T04:14:04;996.43;;;10.43;77.80
48810;BME280;40070;47.322;18.784;2024-03-02T04:16:05;996.47;;;10.54;77.66
48810;BME280;40070;47.322;18.784;2024-03-02T04:18:06;996.50;;;10.50;77.73
48810;BME280;40070;47.322;18.784;2024-03-02T04:20:07;996.53;;;10.51;77.95
48810;BME280;40070;47.322;18.784;2024-03-02T04:22:08;996.55;;;10.43;78.08
48810;BME280;40070;47.322;18.784;2024-03-02T04:24:09;996.59;;;10.33;78.60
48810;BME280;40070;47.322;18.784;2024-03-02T04:26:10;996.64;;;10.31;78.85
48810;BME280;40070;47.322;18.784;2024-03-02T04:28:11;996.62;;;10.33;79.12
48810;BME280;40070;47.322;18.784;2024-03-02T04:30:12;996.67;;;10.21;79.72
48810;BME280;40070;47.322;18.784;2024-03-02T04:32:13;996.67;;;10.24;79.57
48810;BME280;40070;47.322;18.784;2024-03-02T04:34:14;996.63;;;10.17;79.96
48810;BME280;40070;47.322;18.784;2024-03-02T04:36:15;996.63;;;10.08;80.18
48810;BME280;40070;47.322;18.784;2024-03-02T04:38:16;996.61;;;10.10;80.17
48810;BME280;40070;47.322;18.784;2024-03-02T04:40:17;996.60;;;10.33;79.38
48810;BME280;40070;47.322;18.784;2024-03-02T04:42:18;996.62;;;10.21;79.50
48810;BME280;40070;47.322;18.784;2024-03-02T04:44:19;996.62;;;10.31;79.30
48810;BME280;40070;47.322;18.784;2024-03-02T04:46:20;996.68;;;10.26;79.41
48810;BME280;40070;47.322;18.784;2024-03-02T04:48:21;996.67;;;10.27;79.37
48810;BME280;40070;47.322;18.784;2024-03-02T04:50:22;996.69;;;10.38;79.04
48810;BME280;40070;47.322;18.784;2024-03-02T04:52:23;996.68;;;10.36;79.27
48810;BME280;40070;47.322;18.784;2024-03-02T04:54:24;996.74;;;10.30;79.41
48810;BME280;40070;47.322;18.784;2024-03-02T04:56:25;996.70;;;10.38;79.21
48810;BME280;40070;47.322;18.784;2024-03-02T04:58:26;996.73;;;10.48;79.01
48810;BME280;40070;47.322;18.784;2024-03-02T05:00:27;996.71;;;10.23;79.65
48810;BME280;40070;47.322;18.784;2024-03-02T05:02:28;996.73;;;10.17;80.08
48810;BME280;40070;47.322;18.784;2024-03-02T05:04:29;996.71;;;9.90;80.98
48810;BME280;40070;47.322;18.784;2024-03-02T05:06:30;996.69;;;10.11;80.56
48810;BME280;40070;47.322;18.784;2024-03-02T05:08:31;996.68;;;10.17;80.11
48810;BME280;40070;47.322;18.784;2024-03-02T05:10:32;996.66;;;10.13;80.35
48810;BME280;40070;47.322;18.784;2024-03-02T05:12:33;996.69;;;10.07;81.24
48810;BME280;40070;47.322;18.784;2024-03-02T05:14:34;996.71;;;10.12;81.30
48810;BME280;40070;47.322;18.784;2024-03-02T05:16:35;996.74;;;10.16;81.17
48810;BME280;40070;47.322;18.784;2024-03-02T05:18:37;996.73;;;10.21;80.92
48810;BME280;40070;47.322;18.784;2024-03-02T05:20:38;996.71;;;10.18;81.11
48810;BME280;40070;47.322;18.784;2024-03-02T05:22:39;996.74;;;10.08;81.54
48810;BME280;40070;47.322;18.784;2024-03-02T05:24:40;996.72;;;10.13;81.55
48810;BME280;40070;47.322;18.784;2024-03-02T05:26:41;996.74;;;10.33;81.02
48810;BME280;40070;47.322;18.784;2024-03-02T05:28:42;996.71;;;10.38;80.61
48810;BME280;40070;47.322;18.784;2024-03-02T05:30:43;996.75;;;10.63;79.78
48810;BME280;40070;47.322;18.784;2024-03-02T05:32:44;996.73;;;10.58;79.69
48810;BME280;40070;47.322;18.784;2024-03-02T05:34:45;996.73;;;10.62;79.75
48810;BME280;40070;47.322;18.784;2024-03-02T05:36:46;996.77;;;10.75;78.96
48810;BME280;40070;47.322;18.784;2024-03-02T05:38:47;996.75;;;10.76;79.04
48810;BME280;40070;47.322;18.784;2024-03-02T05:40:48;996.79;;;10.79;78.98
48810;BME280;40070;47.322;18.784;2024-03-02T05:42:49;996.82;;;10.55;79.86
48810;BME280;40070;47.322;18.784;2024-03-02T05:44:50;996.81;;;10.43;80.37
48810;BME280;40070;47.322;18.784;2024-03-02T05:46:50;996.82;;;10.56;80.15
48810;BME280;40070;47.322;18.784;2024-03-02T05:48:51;996.87;;;10.48;80.22
48810;BME280;40070;47.322;18.784;2024-03-02T05:50:52;996.93;;;10.24;81.34
48810;BME280;40070;47.322;18.784;2024-03-02T05:52:53;996.97;;;10.17;81.72
48810;BME280;40070;47.322;18.784;2024-03-02T05:54:54;996.98;;;10.25;82.26
48810;BME280;40070;47.322;18.784;2024-03-02T05:56:56;996.99;;;10.41;81.25
48810;BME280;40070;47.322;18.784;2024-03-02T05:58:57;996.96;;;10.59;80.76
48810;BME280;40070;47.322;18.784;2024-03-02T06:00:58;997.01;;;10.49;81.09
48810;BME280;40070;47.322;18.784;2024-03-02T06:02:59;997.03;;;10.44;81.56
48810;BME280;40070;47.322;18.784;2024-03-02T06:05:00;996.97;;;10.51;81.51
48810;BME280;40070;47.322;18.784;2024-03-02T06:07:01;997.07;;;10.56;80.77
48810;BME280;40070;47.322;18.784;2024-03-02T06:09:02;997.06;;;10.59;80.90
48810;BME280;40070;47.322;18.784;2024-03-02T06:11:04;997.08;;;10.38;81.81
48810;BME280;40070;47.322;18.784;2024-03-02T06:13:05;997.08;;;10.33;82.15
48810;BME280;40070;47.322;18.784;2024-03-02T06:15:06;997.05;;;10.25;82.77
48810;BME280;40070;47.322;18.784;2024-03-02T06:17:07;997.09;;;10.38;82.45
48810;BME280;40070;47.322;18.784;2024-03-02T06:19:08;997.09;;;10.38;82.18
48810;BME280;40070;47.322;18.784;2024-03-02T06:21:09;997.12;;;10.44;82.06
48810;BME280;40070;47.322;18.784;2024-03-02T06:23:10;997.10;;;10.39;82.01
48810;BME280;40070;47.322;18.784;2024-03-02T06:25:11;997.10;;;10.39;82.33
48810;BME280;40070;47.322;18.784;2024-03-02T06:27:12;997.11;;;10.42;82.38
48810;BME280;40070;47.322;18.784;2024-03-02T06:29:13;997.14;;;10.17;83.27
48810;BME280;40070;47.322;18.784;2024-03-02T06:31:14;997.16;;;10.34;83.04
48810;BME280;40070;47.322;18.784;2024-03-02T06:33:15;997.18;;;10.12;83.57
48810;BME280;40070;47.322;18.784;2024-03-02T06:35:16;997.18;;;10.15;84.03
48810;BME280;40070;47.322;18.784;2024-03-02T06:37:17;997.21;;;10.26;83.65
48810;BME280;40070;47.322;18.784;2024-03-02T06:39:17;997.21;;;10.38;83.50
48810;BME280;40070;47.322;18.784;2024-03-02T06:41:18;997.22;;;10.45;83.06
48810;BME280;40070;47.322;18.784;2024-03-02T06:43:19;997.21;;;10.35;83.27
48810;BME280;40070;47.322;18.784;2024-03-02T06:45:20;997.20;;;10.38;83.64
48810;BME280;40070;47.322;18.784;2024-03-02T06:47:21;997.19;;;10.47;83.23
48810;BME280;40070;47.322;18.784;2024-03-02T06:49:22;997.23;;;10.67;82.37
48810;BME280;40070;47.322;18.784;2024-03-02T06:51:23;997.21;;;10.31;83.55
48810;BME280;40070;47.322;18.784;2024-03-02T06:53:24;997.22;;;10.28;84.04
48810;BME280;40070;47.322;18.784;2024-03-02T06:55:25;997.22;;;10.51;83.43
48810;BME280;40070;47.322;18.784;2024-03-02T06:57:26;997.21;;;10.41;83.75
48810;BME280;40070;47.322;18.784;2024-03-02T06:59:27;997.25;;;10.48;83.49
48810;BME280;40070;47.322;18.784;2024-03-02T07:01:28;997.22;;;10.64;83.42
48810;BME280;40070;47.322;18.784;2024-03-02T07:03:29;997.22;;;10.58;82.92
48810;BME280;40070;47.322;18.784;2024-03-02T07:05:30;997.27;;;10.63;83.09
48810;BME280;40070;47.322;18.784;2024-03-02T07:07:31;997.27;;;10.61;82.86
48810;BME280;40070;47.322;18.784;2024-03-02T07:09:32;997.30;;;10.51;83.48
48810;BME280;40070;47.322;18.784;2024-03-02T07:11:33;997.26;;;10.41;84.00
48810;BME280;40070;47.322;18.784;2024-03-02T07:13:35;997.28;;;10.54;83.73
48810;BME280;40070;47.322;18.784;2024-03-02T07:15:36;997.27;;;10.52;83.90
48810;BME280;40070;47.322;18.784;2024-03-02T07:17:37;997.26;;;10.49;84.08
48810;BME280;40070;47.322;18.784;2024-03-02T07:19:38;997.27;;;10.49;83.95
48810;BME280;40070;47.322;18.784;2024-03-02T07:21:39;997.32;;;10.57;84.13
48810;BME280;40070;47.322;18.784;2024-03-02T07:23:40;997.29;;;10.73;83.77
48810;BME280;40070;47.322;18.784;2024-03-02T07:25:41;997.30;;;10.53;83.83
48810;BME280;40070;47.322;18.784;2024-03-02T07:27:42;997.30;;;10.60;83.97
48810;BME280;40070;47.322;18.784;2024-03-02T07:29:43;997.32;;;10.52;83.73
48810;BME280;40070;47.322;18.784;2024-03-02T07:31:44;997.30;;;10.53;84.12
48810;BME280;40070;47.322;18.784;2024-03-02T07:33:45;997.33;;;10.53;84.58
48810;BME280;40070;47.322;18.784;2024-03-02T07:35:46;997.33;;;10.72;83.95
48810;BME280;40070;47.322;18.784;2024-03-02T07:37:47;997.34;;;10.69;83.62
48810;BME280;40070;47.322;18.784;2024-03-02T07:39:48;997.38;;;10.70;83.83
48810;BME280;40070;47.322;18.784;2024-03-02T07:41:48;997.38;;;10.65;84.02
48810;BME280;40070;47.322;18.784;2024-03-02T07:43:50;997.36;;;10.72;84.04
48810;BME280;40070;47.322;18.784;2024-03-02T07:45:50;997.36;;;10.68;84.26
48810;BME280;40070;47.322;18.784;2024-03-02T07:47:51;997.39;;;10.43;85.53
48810;BME280;40070;47.322;18.784;2024-03-02T07:49:52;997.40;;;10.57;85.00
48810;BME280;40070;47.322;18.784;2024-03-02T07:51:53;997.44;;;10.53;85.81
48810;BME280;40070;47.322;18.784;2024-03-02T07:53:54;997.44;;;10.71;85.22
48810;BME280;40070;47.322;18.784;2024-03-02T07:55:56;997.45;;;10.51;85.48
48810;BME280;40070;47.322;18.784;2024-03-02T07:57:57;997.51;;;10.67;85.46
48810;BME280;40070;47.322;18.784;2024-03-02T07:59:58;997.49;;;10.64;85.58
48810;BME280;40070;47.322;18.784;2024-03-02T08:01:59;997.55;;;10.54;86.36
48810;BME280;40070;47.322;18.784;2024-03-02T08:04:00;997.56;;;10.58;86.39
48810;BME280;40070;47.322;18.784;2024-03-02T08:06:01;997.54;;;10.75;86.19
48810;BME280;40070;47.322;18.784;2024-03-02T08:08:02;997.54;;;10.70;85.90
48810;BME280;40070;47.322;18.784;2024-03-02T08:10:04;997.54;;;10.51;87.02
48810;BME280;40070;47.322;18.784;2024-03-02T08:12:06;997.55;;;10.56;86.24
48810;BME280;40070;47.322;18.784;2024-03-02T08:14:07;997.59;;;10.42;87.37
48810;BME280;40070;47.322;18.784;2024-03-02T08:16:08;997.57;;;10.30;87.86
48810;BME280;40070;47.322;18.784;2024-03-02T08:18:08;997.59;;;10.46;87.80
48810;BME280;40070;47.322;18.784;2024-03-02T08:20:10;997.60;;;10.47;88.18
48810;BME280;40070;47.322;18.784;2024-03-02T08:22:11;997.59;;;10.48;87.74
48810;BME280;40070;47.322;18.784;2024-03-02T08:24:12;997.58;;;10.48;87.97
48810;BME280;40070;47.322;18.784;2024-03-02T08:26:13;997.60;;;10.60;87.36
48810;BME280;40070;47.322;18.784;2024-03-02T08:28:14;997.60;;;10.67;87.59
48810;BME280;40070;47.322;18.784;2024-03-02T08:30:15;997.58;;;10.71;87.45
48810;BME280;40070;47.322;18.784;2024-03-02T08:32:16;997.63;;;10.70;87.04
48810;BME280;40070;47.322;18.784;2024-03-02T08:34:17;997.62;;;10.62;86.44
48810;BME280;40070;47.322;18.784;2024-03-02T08:36:18;997.56;;;10.50;87.32
48810;BME280;40070;47.322;18.784;2024-03-02T08:38:19;997.57;;;10.63;87.70
48810;BME280;40070;47.322;18.784;2024-03-02T08:40:20;997.60;;;10.65;87.88
48810;BME280;40070;47.322;18.784;2024-03-02T08:42:21;997.58;;;10.70;87.96
48810;BME280;40070;47.322;18.784;2024-03-02T08:44:22;997.62;;;10.72;87.15
48810;BME280;40070;47.322;18.784;2024-03-02T08:46:23;997.60;;;10.92;87.02
48810;BME280;40070;47.322;18.784;2024-03-02T08:48:24;997.60;;;10.72;87.41
48810;BME280;40070;47.322;18.784;2024-03-02T08:50:25;997.63;;;10.58;87.62
48810;BME280;40070;47.322;18.784;2024-03-02T08:52:26;997.61;;;10.73;87.14
48810;BME280;40070;47.322;18.784;2024-03-02T08:54:27;997.58;;;10.84;87.43
48810;BME280;40070;47.322;18.784;2024-03-02T08:56:28;997.65;;;10.94;86.92
48810;BME280;40070;47.322;18.784;2024-03-02T08:58:29;997.64;;;10.94;86.78
48810;BME280;40070;47.322;18.784;2024-03-02T09:00:30;997.60;;;11.00;86.73
48810;BME280;40070;47.322;18.784;2024-03-02T09:02:31;997.62;;;11.09;86.11
48810;BME280;40070;47.322;18.784;2024-03-02T09:04:32;997.60;;;10.98;86.85
48810;BME280;40070;47.322;18.784;2024-03-02T09:06:33;997.64;;;11.07;86.15
48810;BME280;40070;47.322;18.784;2024-03-02T09:08:34;997.67;;;11.00;86.31
48810;BME280;40070;47.322;18.784;2024-03-02T09:10:35;997.65;;;11.09;86.67
48810;BME280;40070;47.322;18.784;2024-03-02T09:12:36;997.67;;;11.17;86.13
48810;BME280;40070;47.322;18.784;2024-03-02T09:14:38;997.66;;;11.22;85.08
48810;BME280;40070;47.322;18.784;2024-03-02T09:16:39;997.65;;;11.15;85.12
48810;BME280;40070;47.322;18.784;2024-03-02T09:18:40;997.66;;;10.96;85.38
48810;BME280;40070;47.322;18.784;2024-03-02T09:20:41;997.68;;;10.88;86.49
48810;BME280;40070;47.322;18.784;2024-03-02T09:22:42;997.69;;;10.97;86.38
48810;BME280;40070;47.322;18.784;2024-03-02T09:24:43;997.65;;;11.05;86.22
48810;BME280;40070;47.322;18.784;2024-03-02T09:26:44;997.67;;;10.99;86.04
48810;BME280;40070;47.322;18.784;2024-03-02T09:28:45;997.66;;;11.07;86.04
48810;BME280;40070;47.322;18.784;2024-03-02T09:30:46;997.68;;;11.05;86.00
48810;BME280;40070;47.322;18.784;2024-03-02T09:32:47;997.67;;;11.03;85.79
48810;BME280;40070;47.322;18.784;2024-03-02T09:34:48;997.72;;;11.27;84.94
48810;BME280;40070;47.322;18.784;2024-03-02T09:36:49;997.71;;;11.25;85.18
48810;BME280;40070;47.322;18.784;2024-03-02T09:38:50;997.75;;;11.15;85.56
48810;BME280;40070;47.322;18.784;2024-03-02T09:40:51;997.77;;;11.25;85.00
48810;BME280;40070;47.322;18.784;2024-03-02T09:42:52;997.75;;;11.23;84.56
48810;BME280;40070;47.322;18.784;2024-03-02T09:44:54;997.79;;;11.24;84.57
48810;BME280;40070;47.322;18.784;2024-03-02T09:46:56;997.76;;;11.18;84.89
48810;BME280;40070;47.322;18.784;2024-03-02T09:48:57;997.76;;;11.18;85.15
48810;BME280;40070;47.322;18.784;2024-03-02T09:50:58;997.73;;;11.24;85.19
48810;BME280;40070;47.322;18.784;2024-03-02T09:52:59;997.71;;;11.26;85.07
48810;BME280;40070;47.322;18.784;2024-03-02T09:55:00;997.69;;;11.15;85.52
48810;BME280;40070;47.322;18.784;2024-03-02T09:57:02;997.70;;;11.19;85.74
48810;BME280;40070;47.322;18.784;2024-03-02T09:59:03;997.69;;;11.16;85.28
48810;BME280;40070;47.322;18.784;2024-03-02T10:01:07;997.68;;;11.05;85.90
48810;BME280;40070;47.322;18.784;2024-03-02T10:03:11;997.65;;;11.06;86.79
48810;BME280;40070;47.322;18.784;2024-03-02T10:05:13;997.68;;;11.09;86.44
48810;BME280;40070;47.322;18.784;2024-03-02T10:07:14;997.66;;;10.97;86.30
48810;BME280;40070;47.322;18.784;2024-03-02T10:09:26;997.65;;;11.11;86.15
48810;BME280;40070;47.322;18.784;2024-03-02T10:11:28;997.67;;;11.06;86.30
48810;BME280;40070;47.322;18.784;2024-03-02T10:13:29;997.65;;;11.07;86.59
48810;BME280;40070;47.322;18.784;2024-03-02T10:15:30;997.64;;;11.20;86.32
48810;BME280;40070;47.322;18.784;2024-03-02T10:17:31;997.67;;;11.15;85.66
48810;BME280;40070;47.322;18.784;2024-03-02T10:19:32;997.64;;;11.12;85.73
48810;BME280;40070;47.322;18.784;2024-03-02T10:21:34;997.65;;;11.17;85.52
48810;BME280;40070;47.322;18.784;2024-03-02T10:23:35;997.65;;;11.22;85.24
48810;BME280;40070;47.322;18.784;2024-03-02T10:25:36;997.64;;;11.32;84.78
48810;BME280;40070;47.322;18.784;2024-03-02T10:27:36;997.63;;;11.27;85.12
48810;BME280;40070;47.322;18.784;2024-03-02T10:29:38;997.60;;;11.28;85.22
48810;BME280;40070;47.322;18.784;2024-03-02T10:31:39;997.60;;;11.22;86.04
48810;BME280;40070;47.322;18.784;2024-03-02T10:33:41;997.59;;;11.18;86.55
48810;BME280;40070;47.322;18.784;2024-03-02T10:35:42;997.59;;;11.29;86.32
48810;BME280;40070;47.322;18.784;2024-03-02T10:37:44;997.55;;;11.04;85.82
48810;BME280;40070;47.322;18.784;2024-03-02T10:39:46;997.58;;;10.93;87.00
48810;BME280;40070;47.322;18.784;2024-03-02T10:41:47;997.57;;;11.02;86.81
48810;BME280;40070;47.322;18.784;2024-03-02T10:43:53;997.57;;;11.22;86.59
48810;BME280;40070;47.322;18.784;2024-03-02T10:45:54;997.55;;;11.24;85.76
48810;BME280;40070;47.322;18.784;2024-03-02T10:47:55;997.56;;;11.21;86.32
48810;BME280;40070;47.322;18.784;2024-03-02T10:49:56;997.53;;;10.95;86.38
48810;BME280;40070;47.322;18.784;2024-03-02T10:51:58;997.53;;;10.98;87.23